Time;durP1;ratioP1;P1;durP2;ratioP2;P2;SDS_P1;SDS_P2;PMS_P1;PMS_P2;Temp;Humidity;BMP_temperature;BMP_pressure;BME280_temperature;BME280_humidity;BME280_pressure;Samples;Min_cycle;Max_cycle;Signal;HPM_P1;HPM_P2
2023/10/03 00:00:28;;;;;;;;;9.67;7.00;;;;;27.33;46.87;101214.31;5056617;28;45442;-71
2023/10/03 00:03:00;;;;;;;;;7.33;7.00;;;;;27.35;46.39;101209.59;5056389;28;46375;-72
2023/10/03 00:05:28;;;;;;;;;8.33;4.67;;;;;27.35;46.74;101224.81;5056097;28;45472;-72
2023/10/03 00:07:56;;;;;;;;;9.00;6.00;;;;;27.36;46.30;101223.78;5056554;28;45340;-72
2023/10/03 00:10:23;;;;;;;;;5.67;5.67;;;;;27.32;46.13;101219.91;5056361;28;45315;-71
2023/10/03 00:12:50;;;;;;;;;5.33;5.33;;;;;27.34;46.09;101225.84;5056237;28;45355;-71
2023/10/03 00:15:17;;;;;;;;;9.33;7.00;;;;;27.35;46.75;101228.28;5056249;28;45272;-71
2023/10/03 00:17:44;;;;;;;;;5.00;5.00;;;;;27.35;46.29;101232.84;5056432;28;45442;-71
2023/10/03 00:20:16;;;;;;;;;7.00;5.00;;;;;27.35;46.88;101230.16;5054982;28;45395;-71
2023/10/03 00:22:42;;;;;;;;;8.00;6.00;;;;;27.30;46.38;101225.44;5055901;28;47162;-72
2023/10/03 00:25:17;;;;;;;;;5.67;5.67;;;;;27.32;46.15;101220.72;5055668;28;45474;-72
2023/10/03 00:27:51;;;;;;;;;6.67;5.33;;;;;27.35;46.18;101225.63;5056275;28;45301;-71
2023/10/03 00:30:19;;;;;;;;;6.67;4.33;;;;;27.33;46.69;101221.53;5056133;28;45459;-72
2023/10/03 00:32:46;;;;;;;;;5.33;5.00;;;;;27.34;46.61;101224.00;5055982;28;45432;-71
2023/10/03 00:35:11;;;;;;;;;6.67;6.00;;;;;27.35;46.06;101222.94;5055957;28;45276;-72
2023/10/03 00:37:37;;;;;;;;;6.67;6.67;;;;;27.35;46.44;101222.16;5056128;28;45380;-71
2023/10/03 00:42:46;;;;;;;;;7.00;6.33;;;;;27.35;46.87;101232.84;5055314;28;45991;-71
2023/10/03 00:45:19;;;;;;;;;4.00;4.00;;;;;27.31;46.22;101220.91;5055798;28;45356;-71
2023/10/03 00:47:44;;;;;;;;;5.00;5.00;;;;;27.33;46.10;101227.69;5056013;28;45374;-71
2023/10/03 00:50:10;;;;;;;;;8.00;6.00;;;;;27.24;46.83;101219.09;5056014;28;45383;-71
2023/10/03 00:52:37;;;;;;;;;6.00;4.00;;;;;27.34;46.71;101234.69;5055760;28;46950;-72
2023/10/03 00:55:03;;;;;;;;;7.33;5.00;;;;;27.32;46.15;101234.06;5055368;28;45411;-72
2023/10/03 00:57:29;;;;;;;;;5.33;5.33;;;;;27.34;46.22;101244.53;5055823;28;45239;-71
2023/10/03 00:59:58;;;;;;;;;5.67;5.67;;;;;27.34;46.48;101247.22;5055737;28;45466;-72
2023/10/03 01:02:24;;;;;;;;;8.00;7.00;;;;;27.26;46.21;101230.38;5055618;28;47300;-71
2023/10/03 01:04:49;;;;;;;;;5.00;5.00;;;;;27.27;46.34;101229.34;5055270;28;45495;-71
2023/10/03 01:07:14;;;;;;;;;6.67;4.67;;;;;27.32;46.27;101236.75;5055740;28;45347;-71
2023/10/03 01:09:40;;;;;;;;;6.67;5.33;;;;;27.28;46.30;101238.16;5055252;28;45339;-71
2023/10/03 01:12:06;;;;;;;;;6.67;4.67;;;;;27.34;46.94;101241.88;5055619;28;45399;-72
2023/10/03 01:14:35;;;;;;;;;6.00;6.00;;;;;27.18;46.79;101217.22;5055378;28;45280;-72
2023/10/03 01:17:02;;;;;;;;;4.33;4.33;;;;;27.34;46.74;101244.53;5055676;28;45280;-71
2023/10/03 01:19:30;;;;;;;;;6.00;5.00;;;;;27.27;46.16;101228.53;5055549;28;45341;-72
2023/10/03 01:21:57;;;;;;;;;6.00;5.00;;;;;27.31;46.32;101237.75;5055203;28;46355;-72
2023/10/03 01:24:24;;;;;;;;;4.00;4.00;;;;;27.21;46.42;101222.16;5055039;28;45502;-72
2023/10/03 01:26:54;;;;;;;;;6.33;6.00;;;;;27.28;46.29;101232.84;5055315;28;45328;-71
2023/10/03 01:29:20;;;;;;;;;7.33;4.00;;;;;27.28;46.34;101231.00;5055476;28;45297;-71
2023/10/03 01:31:48;;;;;;;;;7.00;5.00;;;;;27.24;46.47;101216.41;5055182;28;45408;-72
2023/10/03 01:34:15;;;;;;;;;5.00;5.00;;;;;27.33;46.38;101232.19;5055443;28;45321;-72
2023/10/03 01:36:41;;;;;;;;;5.67;5.67;;;;;27.32;46.47;101220.72;5055272;28;45255;-72
2023/10/03 01:39:06;;;;;;;;;5.67;5.67;;;;;27.26;46.38;101217.03;5055042;28;45353;-71
2023/10/03 01:41:32;;;;;;;;;7.33;5.00;;;;;27.33;46.26;101229.53;5055131;28;45567;-71
2023/10/03 01:43:57;;;;;;;;;4.00;3.67;;;;;27.06;46.44;101193.78;5055002;28;45373;-71
2023/10/03 01:46:26;;;;;;;;;6.00;6.00;;;;;27.33;46.47;101241.03;5055030;28;45362;-72
2023/10/03 01:48:52;;;;;;;;;7.00;5.00;;;;;27.31;46.84;101229.75;5055246;28;45409;-71
2023/10/03 01:51:18;;;;;;;;;8.33;5.33;;;;;27.31;46.33;101229.75;5054880;28;46307;-72
2023/10/03 01:53:45;;;;;;;;;8.67;5.67;;;;;27.32;46.95;101223.38;5054779;28;45439;-71
2023/10/03 01:56:10;;;;;;;;;8.00;6.00;;;;;27.32;46.17;101228.72;5057202;28;45342;-71
2023/10/03 01:58:35;;;;;;;;;5.67;4.67;;;;;27.25;46.21;101215.38;5058564;28;45664;-72
2023/10/03 02:01:01;;;;;;;;;6.33;4.67;;;;;27.26;46.42;101222.38;5058438;28;45550;-72
2023/10/03 02:03:29;;;;;;;;;5.00;5.00;;;;;27.31;46.37;101235.09;5058482;28;45972;-72
2023/10/03 02:05:54;;;;;;;;;5.67;4.67;;;;;27.32;46.44;101226.06;5058396;28;45411;-71
2023/10/03 02:08:20;;;;;;;;;6.00;5.00;;;;;27.24;46.88;101211.06;5058009;28;45456;-72
2023/10/03 02:10:48;;;;;;;;;6.67;5.00;;;;;27.32;46.96;101219.91;5058252;28;46105;-72
2023/10/03 02:13:14;;;;;;;;;4.00;4.00;;;;;27.24;46.47;101205.72;5058403;28;45438;-72
2023/10/03 02:15:42;;;;;;;;;7.00;6.00;;;;;27.32;46.59;101219.91;5058255;28;45324;-71
2023/10/03 02:18:10;;;;;;;;;4.00;4.00;;;;;27.32;46.77;101225.22;5058374;28;45479;-72
2023/10/03 02:20:38;;;;;;;;;5.67;5.67;;;;;27.31;46.23;101221.72;5057961;28;45843;-71
2023/10/03 02:23:05;;;;;;;;;7.00;5.33;;;;;27.31;46.19;101215.56;5057716;28;45427;-72
2023/10/03 02:25:36;;;;;;;;;5.00;3.33;;;;;27.25;46.50;101206.53;5058116;28;45461;-71
2023/10/03 02:28:02;;;;;;;;;5.67;5.33;;;;;27.31;46.37;101189.69;5058179;28;45665;-71
2023/10/03 02:30:28;;;;;;;;;5.00;4.33;;;;;27.31;46.84;101186.19;5057831;28;46165;-71
2023/10/03 02:32:57;;;;;;;;;7.00;5.00;;;;;27.28;47.01;101190.91;5057991;28;45234;-72
2023/10/03 02:35:25;;;;;;;;;5.67;5.67;;;;;27.31;46.55;101202.22;5058052;28;45316;-72
2023/10/03 02:37:56;;;;;;;;;7.00;5.33;;;;;27.27;46.23;101205.28;5057674;28;45415;-71
2023/10/03 02:40:22;;;;;;;;;7.33;4.67;;;;;27.28;46.85;101201.59;5057837;28;46263;-72
2023/10/03 02:42:54;;;;;;;;;5.00;4.67;;;;;27.21;46.93;101159.91;5057583;28;45316;-72
2023/10/03 02:45:23;;;;;;;;;6.00;4.00;;;;;27.31;46.89;101183.50;5057752;28;45378;-72
2023/10/03 02:47:55;;;;;;;;;6.67;6.00;;;;;27.30;46.22;101188.03;5057818;28;45475;-71
2023/10/03 02:50:23;;;;;;;;;7.00;5.00;;;;;27.22;47.00;101178.38;5057163;28;45415;-71
2023/10/03 02:52:48;;;;;;;;;5.00;4.67;;;;;27.05;46.85;101156.59;5057612;28;45377;-72
2023/10/03 02:55:15;;;;;;;;;9.00;6.00;;;;;27.06;46.91;101164.41;5057646;28;45364;-71
2023/10/03 02:57:40;;;;;;;;;7.00;6.00;;;;;27.30;46.96;101190.69;5057697;28;45392;-71
2023/10/03 03:00:12;;;;;;;;;6.33;5.00;;;;;27.31;46.14;101194.19;5057361;28;46163;-71
2023/10/03 03:02:49;;;;;;;;;6.00;6.00;;;;;27.26;46.13;101194.81;5057496;28;45327;-71
2023/10/03 03:05:15;;;;;;;;;4.00;4.00;;;;;27.31;46.69;101197.69;5056984;28;45364;-72
2023/10/03 03:07:46;;;;;;;;;5.00;5.00;;;;;27.24;46.68;101192.38;5057231;28;45284;-72
2023/10/03 03:10:16;;;;;;;;;8.67;6.00;;;;;27.25;46.83;101188.66;5057330;28;46073;-72
2023/10/03 03:12:42;;;;;;;;;8.00;5.00;;;;;27.31;46.53;101204.88;5057317;28;45382;-71
2023/10/03 03:15:11;;;;;;;;;4.00;3.67;;;;;27.28;46.33;101201.59;5057339;28;45473;-71
2023/10/03 03:17:36;;;;;;;;;5.33;4.00;;;;;27.31;46.28;101195.03;5057359;28;45278;-71
2023/10/03 03:20:11;;;;;;;;;4.00;4.00;;;;;27.31;46.48;101178.16;5056811;28;47253;-71
2023/10/03 03:22:38;;;;;;;;;7.00;5.33;;;;;27.21;46.39;101175.94;5057031;28;45916;-72
2023/10/03 03:25:05;;;;;;;;;4.33;4.33;;;;;27.27;46.61;101207.16;5057096;28;45524;-71
2023/10/03 03:27:39;;;;;;;;;4.33;4.33;;;;;27.31;46.32;101227.09;5057102;28;45331;-71
2023/10/03 03:32:49;;;;;;;;;6.33;5.00;;;;;27.32;46.95;101219.91;5056961;28;45383;-72
2023/10/03 03:35:15;;;;;;;;;4.00;4.00;;;;;27.32;46.21;101219.91;5056664;28;45403;-71
2023/10/03 03:37:40;;;;;;;;;6.00;4.33;;;;;27.31;46.86;101205.72;5057056;28;45489;-71
2023/10/03 03:40:29;;;;;;;;;7.00;5.00;;;;;27.31;46.29;101220.91;5056839;28;47151;-71
2023/10/03 03:42:57;;;;;;;;;5.67;2.67;;;;;27.31;46.59;101235.09;5056683;28;45295;-71
2023/10/03 03:45:23;;;;;;;;;6.00;5.00;;;;;27.29;46.84;101240.66;5056820;28;45363;-71
2023/10/03 03:47:51;;;;;;;;;5.00;5.00;;;;;27.30;46.39;101246.78;5056886;28;45567;-72
2023/10/03 03:50:17;;;;;;;;;6.67;5.00;;;;;27.30;46.89;101228.09;5056444;28;46331;-71
2023/10/03 03:52:45;;;;;;;;;5.00;5.00;;;;;27.29;46.31;101229.13;5056650;28;45443;-71
2023/10/03 03:55:11;;;;;;;;;4.00;4.00;;;;;27.28;46.28;101231.00;5056924;28;45397;-71
2023/10/03 03:57:38;;;;;;;;;4.67;4.67;;;;;27.29;47.17;101221.97;5056542;28;45446;-71
2023/10/03 04:00:20;;;;;;;;;5.67;5.67;;;;;27.28;46.61;101214.97;5056562;28;46090;-72
2023/10/03 04:02:46;;;;;;;;;5.00;5.00;;;;;27.23;46.60;101213.94;5056144;28;45386;-71
2023/10/03 04:05:12;;;;;;;;;4.00;4.00;;;;;27.30;46.46;101217.41;5056273;28;45451;-71
2023/10/03 04:07:38;;;;;;;;;6.67;5.00;;;;;27.12;46.39;101192.13;5056504;28;45250;-71
2023/10/03 04:10:09;;;;;;;;;7.00;4.67;;;;;27.28;46.93;101228.31;5056381;28;45450;-71
2023/10/03 04:12:41;;;;;;;;;4.33;4.00;;;;;27.29;46.36;101242.50;5056424;28;45316;-71
2023/10/03 04:15:12;;;;;;;;;4.33;4.33;;;;;27.29;46.19;101245.16;5056378;28;45363;-72
2023/10/03 04:17:42;;;;;;;;;5.33;4.00;;;;;27.28;46.83;101249.69;5055510;28;45444;-72
2023/10/03 04:20:19;;;;;;;;;4.00;4.00;;;;;27.22;46.82;101250.50;5056179;28;45377;-71
2023/10/03 04:22:50;;;;;;;;;7.00;4.67;;;;;27.29;46.56;101264.69;5055982;28;45466;-72
2023/10/03 04:25:19;;;;;;;;;6.33;5.33;;;;;27.29;46.31;101250.50;5056207;28;45357;-71
2023/10/03 04:27:45;;;;;;;;;4.67;3.67;;;;;27.31;46.39;101244.94;5056304;28;45363;-72
2023/10/03 04:30:13;;;;;;;;;4.67;4.67;;;;;27.24;46.31;101236.94;5055942;28;45825;-72
2023/10/03 04:32:39;;;;;;;;;6.00;4.67;;;;;27.29;46.52;101264.69;5055699;28;45352;-72
2023/10/03 04:35:11;;;;;;;;;8.33;5.33;;;;;27.23;46.84;101265.50;5056102;28;45427;-72
2023/10/03 04:37:38;;;;;;;;;6.67;5.00;;;;;27.29;46.56;101269.22;5055927;28;45435;-71
2023/10/03 04:40:06;;;;;;;;;4.00;4.00;;;;;27.30;46.33;101262.81;5055986;28;47293;-71
2023/10/03 04:42:32;;;;;;;;;5.00;5.00;;;;;27.28;46.78;101251.53;5055696;28;45427;-72
2023/10/03 04:44:57;;;;;;;;;4.00;4.00;;;;;27.30;46.63;101254.81;5055910;28;45250;-72
2023/10/03 04:47:22;;;;;;;;;4.67;4.67;;;;;27.30;46.49;101262.81;5055632;28;45415;-71
2023/10/03 04:49:48;;;;;;;;;4.00;4.00;;;;;27.27;46.76;101253.38;5055765;28;46821;-71
2023/10/03 04:52:13;;;;;;;;;4.00;4.00;;;;;27.28;46.76;101252.34;5055874;28;45427;-72
2023/10/03 04:54:39;;;;;;;;;5.67;5.00;;;;;27.27;46.90;101247.22;5055943;28;45221;-71
2023/10/03 04:57:05;;;;;;;;;4.67;4.67;;;;;27.30;46.70;101252.13;5055914;28;45550;-71
2023/10/03 04:59:30;;;;;;;;;3.33;3.33;;;;;27.29;46.54;101255.84;5055814;28;45367;-72
2023/10/03 05:01:55;;;;;;;;;5.33;5.00;;;;;27.20;46.98;101239.19;5055368;28;45287;-71
2023/10/03 05:04:21;;;;;;;;;5.00;5.00;;;;;27.26;46.29;101254.41;5055712;28;45275;-71
2023/10/03 05:06:49;;;;;;;;;4.67;3.00;;;;;27.29;46.49;101266.53;5055746;28;45411;-71
2023/10/03 05:09:14;;;;;;;;;4.00;4.00;;;;;27.29;46.24;101274.56;5055653;28;45413;-71
2023/10/03 05:11:41;;;;;;;;;4.00;4.00;;;;;27.19;46.43;101266.97;5055467;28;45459;-71
2023/10/03 05:14:07;;;;;;;;;5.67;5.33;;;;;27.28;46.73;101289.75;5055657;28;45328;-71
2023/10/03 05:16:34;;;;;;;;;4.00;4.00;;;;;27.28;47.02;101295.09;5055038;28;45340;-71
2023/10/03 05:18:59;;;;;;;;;6.00;4.00;;;;;27.10;46.89;101262.81;5055387;28;46830;-71
2023/10/03 05:21:24;;;;;;;;;4.00;4.00;;;;;27.29;46.34;101282.56;5055460;28;45478;-72
2023/10/03 05:23:49;;;;;;;;;3.33;3.33;;;;;27.28;46.21;101289.75;5055700;28;45374;-71
2023/10/03 05:26:24;;;;;;;;;6.00;4.00;;;;;27.22;46.62;101284.44;5055507;28;45285;-71
2023/10/03 05:28:50;;;;;;;;;5.33;4.00;;;;;27.18;47.16;101284.00;5055315;28;47636;-71
2023/10/03 05:31:15;;;;;;;;;5.67;4.33;;;;;27.29;46.28;101311.94;5057302;28;45478;-72
2023/10/03 05:33:42;;;;;;;;;4.33;4.33;;;;;27.22;46.51;101309.25;5058998;28;45428;-72
2023/10/03 05:36:14;;;;;;;;;5.00;3.67;;;;;27.30;47.06;101318.91;5058907;28;45297;-72
2023/10/03 05:38:42;;;;;;;;;3.00;3.00;;;;;27.25;46.58;101324.88;5058526;28;46162;-72
2023/10/03 05:41:17;;;;;;;;;4.33;2.00;;;;;27.29;46.70;101336.81;5057449;28;45425;-70
2023/10/03 05:43:43;;;;;;;;;3.00;3.00;;;;;27.30;46.67;101359.00;5057680;28;47157;-72
2023/10/03 05:46:10;;;;;;;;;6.00;5.00;;;;;27.31;46.83;101360.66;5057355;28;45392;-72
2023/10/03 05:48:35;;;;;;;;;5.67;5.33;;;;;27.31;46.48;101357.97;5054432;28;47344;-72
2023/10/03 05:51:01;;;;;;;;;4.67;4.33;;;;;27.31;46.58;101365.16;5055071;28;45421;-72
2023/10/03 05:53:27;;;;;;;;;4.00;4.00;;;;;27.34;46.75;101378.94;5057416;28;46158;-71
2023/10/03 05:55:52;;;;;;;;;5.67;5.33;;;;;27.35;46.80;101393.13;5053028;28;45590;-72
2023/10/03 05:58:17;;;;;;;;;5.67;4.00;;;;;27.37;46.43;101383.06;5051855;28;46959;-71
2023/10/03 06:00:43;;;;;;;;;5.00;4.00;;;;;27.26;46.93;101355.09;5044289;28;45384;-73
2023/10/03 06:03:09;;;;;;;;;4.67;4.33;;;;;27.20;47.04;101350.56;5045848;28;45559;-73
2023/10/03 06:05:34;;;;;;;;;4.00;3.67;;;;;27.36;46.61;101392.91;5050973;28;46474;-71
2023/10/03 06:08:00;;;;;;;;;5.00;5.00;;;;;27.39;46.48;101392.53;5048320;28;45443;-71
2023/10/03 06:10:29;;;;;;;;;6.67;4.00;;;;;27.38;46.67;101409.56;5047676;28;45833;-72
2023/10/03 06:12:54;;;;;;;;;3.33;3.33;;;;;27.32;46.83;101415.75;5041083;28;45663;-73
2023/10/03 06:15:19;;;;;;;;;3.00;3.00;;;;;27.38;46.44;101436.28;5029856;28;45633;-73
2023/10/03 06:17:45;;;;;;;;;5.33;4.67;;;;;27.39;46.75;101443.28;5022645;28;45647;-72
2023/10/03 06:20:14;;;;;;;;;2.67;2.33;;;;;27.39;45.90;101443.28;5052757;28;45416;-72
2023/10/03 06:22:41;;;;;;;;;4.00;3.00;;;;;27.39;45.98;101432.59;5054320;28;45279;-72
2023/10/03 06:25:07;;;;;;;;;5.33;3.00;;;;;27.39;45.96;101445.13;5051810;28;45497;-72
2023/10/03 06:27:33;;;;;;;;;3.33;2.67;;;;;27.38;46.24;101448.81;5052972;28;45905;-76
2023/10/03 06:29:58;;;;;;;;;3.00;2.67;;;;;27.31;46.54;101438.13;5054308;28;45424;-73
2023/10/03 06:32:23;;;;;;;;;3.00;3.00;;;;;27.35;46.55;101452.72;5053181;28;45971;-72
2023/10/03 06:34:49;;;;;;;;;3.00;3.00;;;;;27.35;46.10;101484.78;5050666;28;45491;-74
2023/10/03 06:37:15;;;;;;;;;3.00;3.00;;;;;27.29;46.24;101478.41;5052310;28;46262;-73
2023/10/03 06:39:41;;;;;;;;;3.00;3.00;;;;;27.33;46.18;101486.81;5053044;28;45613;-74
2023/10/03 06:42:07;;;;;;;;;3.00;3.00;;;;;27.37;46.20;101495.28;5052719;28;45498;-74
2023/10/03 06:44:33;;;;;;;;;4.67;2.00;;;;;27.33;45.98;101504.69;5053048;28;45372;-74
2023/10/03 06:46:58;;;;;;;;;3.67;3.00;;;;;27.35;45.56;101506.16;5052790;28;45355;-74
2023/10/03 06:49:24;;;;;;;;;3.00;2.00;;;;;27.32;46.01;101501.22;5053638;28;45316;-73
2023/10/03 06:51:51;;;;;;;;;3.00;1.67;;;;;27.19;45.52;101475.28;5053324;28;45302;-73
2023/10/03 06:54:16;;;;;;;;;2.00;2.00;;;;;27.26;45.81;101494.00;5053713;28;45422;-73
2023/10/03 06:56:42;;;;;;;;;3.00;1.67;;;;;27.34;45.39;101517.88;5052664;28;46277;-73
2023/10/03 06:59:11;;;;;;;;;2.00;2.00;;;;;27.35;45.63;101521.38;5053265;28;45740;-73
2023/10/03 07:01:39;;;;;;;;;4.00;3.00;;;;;27.26;45.71;101516.22;5053340;28;45398;-73
2023/10/03 07:04:08;;;;;;;;;2.00;2.00;;;;;27.31;44.96;101525.47;5053289;28;45577;-73
2023/10/03 07:06:34;;;;;;;;;2.33;2.33;;;;;27.33;45.52;101542.94;5051489;28;46384;-73
2023/10/03 07:09:01;;;;;;;;;2.67;2.67;;;;;27.28;45.00;101550.72;5049461;28;45580;-73
2023/10/03 07:11:27;;;;;;;;;4.33;3.33;;;;;27.31;44.79;101560.19;5052003;28;46493;-73
2023/10/03 07:13:52;;;;;;;;;5.00;2.00;;;;;27.26;45.47;101558.13;5053129;28;45921;-74
2023/10/03 07:16:18;;;;;;;;;3.33;2.00;;;;;27.31;44.67;101574.38;5052977;28;47236;-74
2023/10/03 07:18:44;;;;;;;;;2.33;1.33;;;;;27.31;44.89;101574.38;5051045;28;45506;-73
2023/10/03 07:21:10;;;;;;;;;4.00;2.00;;;;;27.30;45.09;101575.38;5052734;28;45277;-73
2023/10/03 07:23:36;;;;;;;;;5.67;2.67;;;;;27.31;45.05;101594.91;5052952;28;45485;-74
2023/10/03 07:26:01;;;;;;;;;2.33;2.33;;;;;27.31;45.03;101597.59;5048989;28;46527;-74
2023/10/03 07:28:27;;;;;;;;;8.33;1.67;;;;;27.29;44.46;101597.78;5052223;28;45429;-74
2023/10/03 07:30:52;;;;;;;;;4.00;2.00;;;;;27.28;44.53;101606.81;5053034;28;46229;-73
2023/10/03 07:33:17;;;;;;;;;2.67;2.00;;;;;27.28;44.21;101596.97;5053379;28;45347;-73
2023/10/03 07:35:44;;;;;;;;;3.67;2.67;;;;;27.17;44.08;101592.16;5052403;28;45495;-74
2023/10/03 07:38:11;;;;;;;;;3.00;3.00;;;;;27.29;44.49;101616.50;5051934;28;45454;-74
2023/10/03 07:40:40;;;;;;;;;2.67;2.67;;;;;27.14;44.23;101579.25;5052145;28;45508;-74
2023/10/03 07:43:09;;;;;;;;;3.00;2.00;;;;;27.29;44.23;101605.81;5052859;28;45492;-73
2023/10/03 07:45:37;;;;;;;;;5.00;3.00;;;;;27.31;44.01;101608.28;5052166;28;47139;-74
2023/10/03 07:48:05;;;;;;;;;1.00;1.00;;;;;27.15;43.92;101581.69;5052598;28;45834;-74
2023/10/03 07:50:31;;;;;;;;;2.00;2.00;;;;;27.25;43.62;101604.53;5052256;28;45363;-74
2023/10/03 07:52:57;;;;;;;;;2.00;2.00;;;;;27.36;43.48;101620.03;5051710;28;45281;-73
2023/10/03 07:55:25;;;;;;;;;3.33;3.33;;;;;27.38;43.68;101623.31;5052254;28;47441;-73
2023/10/03 07:57:54;;;;;;;;;2.00;2.00;;;;;27.47;43.93;101637.34;5052291;28;45540;-74
2023/10/03 08:00:26;;;;;;;;;4.33;3.00;;;;;27.53;43.19;101633.06;5051160;28;45393;-73
2023/10/03 08:02:52;;;;;;;;;4.00;2.67;;;;;27.32;43.28;101597.41;5051989;28;45581;-74
2023/10/03 08:05:17;;;;;;;;;2.67;2.67;;;;;27.41;43.29;101603.38;5051608;28;46188;-74
2023/10/03 08:07:47;;;;;;;;;3.00;3.00;;;;;27.61;43.17;101635.53;5051757;28;45569;-73
2023/10/03 08:10:15;;;;;;;;;3.33;2.00;;;;;27.72;43.19;101639.50;5052413;28;45642;-74
2023/10/03 08:12:40;;;;;;;;;2.00;2.00;;;;;27.82;42.79;101639.13;5051870;28;45655;-73
2023/10/03 08:15:16;;;;;;;;;4.00;2.67;;;;;28.24;43.16;101661.47;5051218;28;45336;-73
2023/10/03 08:17:44;;;;;;;;;3.33;3.00;;;;;28.30;42.42;101652.63;5048291;28;46608;-73
2023/10/03 08:20:14;;;;;;;;;2.33;2.33;;;;;28.46;41.99;101677.38;5051799;28;45442;-74
2023/10/03 08:22:41;;;;;;;;;2.67;2.67;;;;;28.49;41.98;101690.38;5048043;28;45407;-74
2023/10/03 08:25:09;;;;;;;;;3.67;3.67;;;;;28.46;42.31;101704.97;5051412;28;47442;-73
2023/10/03 08:27:35;;;;;;;;;5.00;4.00;;;;;28.39;42.34;101696.88;5051465;28;45392;-74
2023/10/03 08:30:03;;;;;;;;;4.00;4.00;;;;;28.38;42.13;101719.34;5052189;28;45352;-74
2023/10/03 08:32:28;;;;;;;;;4.00;4.00;;;;;28.31;42.47;101728.38;5048888;28;45593;-74
2023/10/03 08:34:54;;;;;;;;;2.00;1.00;;;;;28.15;42.88;101720.53;5051462;28;46903;-74
2023/10/03 08:37:22;;;;;;;;;3.00;2.33;;;;;28.21;42.84;101742.16;5051988;28;45419;-73
2023/10/03 08:39:51;;;;;;;;;5.33;3.00;;;;;28.15;42.39;101749.97;5051147;28;45744;-73
2023/10/03 08:42:34;;;;;;;;;3.00;3.00;;;;;28.01;42.91;101740.22;5051715;28;45478;-74
2023/10/03 08:45:16;;;;;;;;;6.00;4.00;;;;;28.06;42.77;101753.81;5050472;28;46429;-74
2023/10/03 08:47:47;;;;;;;;;3.00;3.00;;;;;28.02;42.83;101761.44;5051041;28;45531;-74
2023/10/03 08:50:29;;;;;;;;;3.33;2.33;;;;;27.85;42.94;101728.84;5048530;28;45237;-74
2023/10/03 08:52:56;;;;;;;;;2.67;2.67;;;;;27.98;43.12;101764.69;5051548;28;45568;-73
2023/10/03 08:55:26;;;;;;;;;3.00;3.00;;;;;27.91;43.00;101765.47;5051631;28;46300;-73
2023/10/03 08:57:52;;;;;;;;;5.00;3.67;;;;;27.96;42.61;101773.75;5051241;28;45379;-73
2023/10/03 09:00:25;;;;;;;;;3.00;3.00;;;;;27.96;42.64;101781.75;5051598;28;45288;-73
2023/10/03 09:02:59;;;;;;;;;2.67;2.67;;;;;27.93;43.30;101787.50;5050911;28;45826;-73
2023/10/03 09:05:25;;;;;;;;;4.00;3.00;;;;;27.84;43.20;101772.66;5051159;28;46266;-74
2023/10/03 09:07:51;;;;;;;;;3.00;3.00;;;;;27.92;43.32;101799.22;5050981;28;45817;-73
2023/10/03 09:10:24;;;;;;;;;4.33;4.00;;;;;27.92;43.43;101801.88;5051512;28;45427;-72
2023/10/03 09:13:03;;;;;;;;;2.00;1.00;;;;;27.93;43.15;101808.06;5051076;28;45393;-73
2023/10/03 09:15:37;;;;;;;;;4.33;3.00;;;;;27.92;43.07;101814.47;5051240;28;47228;-74
2023/10/03 09:18:04;;;;;;;;;4.00;4.00;;;;;27.92;43.17;101827.81;5050947;28;45449;-74
2023/10/03 09:20:34;;;;;;;;;4.33;3.33;;;;;27.90;43.01;101821.81;5051143;28;45348;-74
2023/10/03 09:23:07;;;;;;;;;3.33;3.00;;;;;27.74;43.33;101807.72;5043990;28;46026;-74
2023/10/03 09:25:34;;;;;;;;;3.00;3.00;;;;;27.92;43.60;101833.16;5050780;28;46404;-74
2023/10/03 09:28:05;;;;;;;;;4.67;2.00;;;;;27.93;43.72;101843.66;5051430;28;45401;-74
2023/10/03 09:30:37;;;;;;;;;2.00;2.00;;;;;27.96;43.40;101845.94;5051437;28;45497;-74
2023/10/03 09:33:05;;;;;;;;;3.33;3.00;;;;;27.99;42.99;101858.09;5051029;28;45481;-74
2023/10/03 09:35:31;;;;;;;;;2.00;2.00;;;;;27.74;43.34;101805.88;5049648;28;47476;-74
2023/10/03 09:37:57;;;;;;;;;2.67;2.67;;;;;28.04;43.66;101861.00;5050991;28;45646;-73
2023/10/03 09:40:22;;;;;;;;;5.00;3.00;;;;;27.99;43.08;101859.94;5051266;28;45755;-73
2023/10/03 09:42:49;;;;;;;;;2.00;2.00;;;;;28.04;43.24;101869.03;5050684;28;45795;-73
2023/10/03 09:45:24;;;;;;;;;4.00;4.00;;;;;28.11;43.26;101869.06;5050719;28;46202;-73
2023/10/03 09:47:58;;;;;;;;;4.67;3.00;;;;;28.13;43.26;101876.91;5050367;28;45524;-74
2023/10/03 09:50:26;;;;;;;;;3.00;3.00;;;;;28.15;43.19;101877.53;5051440;28;46351;-73
2023/10/03 09:52:52;;;;;;;;;3.33;3.00;;;;;28.15;43.21;101858.81;5050477;28;46445;-73
2023/10/03 09:55:26;;;;;;;;;2.33;2.33;;;;;28.09;43.19;101881.00;5050832;28;45410;-73
2023/10/03 09:57:54;;;;;;;;;3.00;3.00;;;;;27.96;43.44;101862.00;5050299;28;45394;-74
2023/10/03 10:00:39;;;;;;;;;4.00;2.00;;;;;28.07;43.42;101882.03;5050769;28;45308;-74
2023/10/03 10:03:13;;;;;;;;;1.00;1.00;;;;;28.11;43.49;101894.97;5050722;28;45388;-74
2023/10/03 10:05:52;;;;;;;;;3.00;2.33;;;;;28.09;42.82;101903.22;5049582;28;46304;-74
2023/10/03 10:08:29;;;;;;;;;2.00;2.00;;;;;28.09;43.26;101911.25;5050631;28;45914;-73
2023/10/03 10:11:07;;;;;;;;;2.67;2.67;;;;;28.06;43.60;101912.47;5050731;28;45400;-73
2023/10/03 10:13:37;;;;;;;;;3.33;1.67;;;;;27.93;43.12;101915.88;5050331;28;45809;-73
2023/10/03 10:16:11;;;;;;;;;2.33;2.33;;;;;28.07;43.29;101929.34;5050907;28;47049;-74
2023/10/03 10:18:43;;;;;;;;;4.00;4.00;;;;;28.07;43.34;101934.69;5051416;28;45399;-73
2023/10/03 10:21:37;;;;;;;;;3.00;3.00;;;;;28.09;43.47;101929.13;5051013;28;45534;-74
2023/10/03 10:24:15;;;;;;;;;5.67;4.00;;;;;28.09;43.13;101943.34;5050451;28;45493;-75
2023/10/03 10:26:48;;;;;;;;;2.67;2.33;;;;;27.98;39.96;101936.69;5049350;28;45501;-74
2023/10/03 10:29:19;;;;;;;;;2.00;2.00;;;;;27.84;38.40;101949.94;5054874;28;45455;-74
2023/10/03 10:31:49;;;;;;;;;2.00;2.00;;;;;27.59;37.16;101955.69;5054252;28;45381;-75
2023/10/03 10:34:20;;;;;;;;;2.67;1.33;;;;;27.37;37.58;101965.53;5050313;28;45562;-73
2023/10/03 10:37:15;;;;;;;;;3.67;3.33;;;;;27.23;38.56;101973.41;5052486;28;46118;-75
2023/10/03 10:40:09;;;;;;;;;2.00;1.00;;;;;27.25;38.83;101981.22;5050355;28;45495;-75
2023/10/03 10:42:59;;;;;;;;;2.33;2.33;;;;;27.11;39.17;101982.91;5050421;28;45488;-75
2023/10/03 10:45:25;;;;;;;;;3.00;3.00;;;;;27.24;39.35;102014.31;5052990;28;45459;-75
2023/10/03 10:47:51;;;;;;;;;2.00;2.00;;;;;27.31;39.25;102028.56;5052820;28;45280;-77
2023/10/03 10:50:25;;;;;;;;;4.00;2.00;;;;;27.34;39.63;102038.06;5052125;28;45263;-76
2023/10/03 10:53:02;;;;;;;;;2.00;2.00;;;;;27.35;39.98;102037.06;5050152;28;45552;-76
2023/10/03 10:55:27;;;;;;;;;3.00;1.33;;;;;26.93;40.46;101976.94;5049400;28;45260;-76
2023/10/03 10:58:17;;;;;;;;;4.00;2.00;;;;;27.38;40.82;102044.66;5051167;28;45659;-76
2023/10/03 11:00:43;;;;;;;;;3.00;3.00;;;;;27.28;40.33;102031.63;5052383;28;45705;-75
2023/10/03 11:03:09;;;;;;;;;3.33;2.67;;;;;27.36;40.64;102049.38;5052887;28;45382;-75
2023/10/03 11:05:46;;;;;;;;;3.00;2.00;;;;;27.35;40.77;102040.53;5051470;28;45406;-74
2023/10/03 11:08:11;;;;;;;;;2.33;2.33;;;;;27.44;40.96;102057.28;5052780;28;46030;-75
2023/10/03 11:10:55;;;;;;;;;2.33;2.00;;;;;27.51;41.03;102060.88;5051502;28;45451;-74
2023/10/03 11:13:21;;;;;;;;;2.00;2.00;;;;;27.46;41.60;102052.59;5050989;28;45564;-74
2023/10/03 11:15:48;;;;;;;;;3.67;2.00;;;;;27.55;41.24;102061.31;5052381;28;45778;-75
2023/10/03 11:18:15;;;;;;;;;1.67;1.33;;;;;27.57;41.72;102069.16;5051551;28;45503;-75
2023/10/03 11:20:40;;;;;;;;;2.00;2.00;;;;;27.56;41.31;102060.28;5051375;28;45466;-77
2023/10/03 11:23:14;;;;;;;;;2.00;2.00;;;;;27.46;41.85;102043.72;5052326;28;45471;-76
2023/10/03 11:25:40;;;;;;;;;3.00;3.00;;;;;27.58;42.01;102066.31;5049434;28;45538;-76
2023/10/03 11:28:06;;;;;;;;;3.00;1.67;;;;;27.59;42.08;102059.09;5051758;28;47134;-76
2023/10/03 11:30:31;;;;;;;;;3.00;3.00;;;;;27.42;41.64;102039.78;5052474;28;45491;-77
2023/10/03 11:33:01;;;;;;;;;2.67;2.67;;;;;27.51;42.00;102062.69;5050552;28;45500;-77
2023/10/03 11:35:26;;;;;;;;;2.67;2.00;;;;;27.39;41.52;102047.19;5049528;28;45446;-77